Time;durP1;ratioP1;P1;durP2;ratioP2;P2;SDS_P1;SDS_P2;PMS_P1;PMS_P2;Temp;Humidity;BMP_temperature;BMP_pressure;BME280_temperature;BME280_humidity;BME280_pressure;Samples;Min_cycle;Max_cycle;Signal;HPM_P1;HPM_P2
2021/10/19 00:13:16;;;;;;;0.10;0.10;;;13.70;84.80;12.90;101829.00;;;;30890261;28;20058;-65
2021/10/19 00:28:24;;;;;;;0.13;0.13;;;13.70;86.70;12.90;101850.00;;;;30878497;28;20054;-66
2021/10/19 00:43:26;;;;;;;0.20;0.20;;;13.70;86.20;12.90;101844.00;;;;30883495;28;20100;-65
2021/10/19 00:58:31;;;;;;;0.10;0.10;;;13.70;87.10;12.80;101836.00;;;;30902295;28;20044;-65
2021/10/19 01:13:34;;;;;;;0.10;0.10;;;13.60;87.60;12.80;101825.00;;;;30878270;28;20046;-66
2021/10/19 01:28:42;;;;;;;0.20;0.20;;;13.60;87.40;12.80;101819.00;;;;30886429;28;20064;-66
2021/10/19 01:43:46;;;;;;;0.10;0.10;;;13.70;88.00;12.90;101798.00;;;;30878253;28;20070;-66
2021/10/19 01:58:48;;;;;;;;;;;13.80;88.90;13.00;101771.00;;;;30879539;28;20496;-65
2021/10/19 02:13:49;;;;;;;0.10;0.10;;;13.70;88.90;12.90;101748.00;;;;30873852;28;21126;-65
2021/10/19 02:28:51;;;;;;;0.10;0.10;;;13.80;89.70;13.00;101724.00;;;;30906950;28;20046;-65
2021/10/19 02:43:53;;;;;;;0.10;0.10;;;13.90;90.40;13.10;101718.00;;;;30898073;28;20066;-65
2021/10/19 02:58:55;;;;;;;0.28;0.28;;;14.10;90.70;13.30;101710.00;;;;30921814;28;20623;-66
2021/10/19 03:13:58;;;;;;;0.32;0.32;;;14.20;91.00;13.50;101699.00;;;;30899341;28;20042;-65
2021/10/19 03:29:27;;;;;;;0.20;0.20;;;14.30;91.20;13.50;101691.00;;;;30895165;28;20108;-65
2021/10/19 03:44:28;;;;;;;0.70;0.40;;;14.30;91.10;13.50;101692.00;;;;30895388;28;21000;-66
2021/10/19 03:59:30;;;;;;;0.10;0.10;;;14.30;92.40;13.50;101672.00;;;;30886220;28;20404;-66
2021/10/19 04:14:34;;;;;;;0.10;0.10;;;14.30;92.50;13.50;101684.00;;;;30892176;28;20149;-65
2021/10/19 04:29:36;;;;;;;0.10;0.10;;;14.30;92.10;13.60;101678.00;;;;30928876;28;20054;-66
2021/10/19 04:44:45;;;;;;;0.10;0.10;;;14.40;92.60;13.60;101678.00;;;;30873942;28;20547;-67
2021/10/19 04:59:46;;;;;;;0.50;0.50;;;14.40;92.40;13.70;101678.00;;;;30879217;28;20105;-67
2021/10/19 05:15:16;;;;;;;0.10;0.10;;;14.40;92.90;13.70;101666.00;;;;30895074;28;20085;-67
2021/10/19 05:30:24;;;;;;;0.10;0.10;;;14.40;92.90;13.70;101661.00;;;;30884808;28;20047;-67
2021/10/19 05:45:29;;;;;;;0.15;0.15;;;14.50;93.40;13.70;101637.00;;;;30885141;28;20054;-67
2021/10/19 06:00:35;;;;;;;0.10;0.10;;;14.50;93.40;13.70;101630.00;;;;30893702;28;20557;-66
2021/10/19 06:15:41;;;;;;;0.30;0.30;;;14.60;93.60;13.80;101638.00;;;;30877745;28;20034;-66
2021/10/19 06:30:44;;;;;;;0.10;0.10;;;14.60;93.70;13.90;101637.00;;;;30885029;28;20089;-66
2021/10/19 06:45:47;;;;;;;0.20;0.20;;;14.60;94.30;14.00;101624.00;;;;30868611;28;20807;-65
2021/10/19 07:00:48;;;;;;;0.10;0.10;;;14.80;93.90;14.10;101624.00;;;;30873476;28;20054;-65
2021/10/19 07:16:01;;;;;;;0.10;0.10;;;14.90;93.90;14.20;101646.00;;;;30895625;28;20573;-64
2021/10/19 07:31:02;;;;;;;0.20;0.20;;;15.10;94.10;14.30;101644.00;;;;30900555;28;20133;-66
2021/10/19 07:46:09;;;;;;;0.10;0.10;;;15.70;94.40;14.40;101649.00;;;;30910277;28;20070;-65
2021/10/19 08:01:11;;;;;;;0.22;0.22;;;14.40;93.90;14.60;101652.00;;;;30909650;28;20039;-65
2021/10/19 08:16:15;;;;;;;0.20;0.20;;;15.40;94.30;14.80;101641.00;;;;30895604;28;20573;-65
2021/10/19 08:31:21;;;;;;;0.95;0.95;;;15.70;94.10;15.00;101640.00;;;;30890419;28;20051;-66
2021/10/19 08:46:22;;;;;;;0.10;0.10;;;15.80;94.30;15.20;101641.00;;;;30888936;28;20520;-66
2021/10/19 09:01:35;;;;;;;2.53;0.25;;;16.10;94.50;15.40;101639.00;;;;30889876;28;20505;-65
2021/10/19 09:16:49;;;;;;;0.10;0.10;;;16.30;94.40;15.60;101638.00;;;;30886420;28;20042;-64
2021/10/19 09:31:59;;;;;;;0.10;0.10;;;16.40;94.40;15.80;101637.00;;;;30874346;28;20043;-65
2021/10/19 09:47:02;;;;;;;0.30;0.30;;;16.50;94.40;15.90;101636.00;;;;30870583;28;20049;-66
2021/10/19 10:02:14;;;;;;;0.20;0.20;;;16.60;94.40;16.00;101636.00;;;;30877101;28;20050;-66
2021/10/19 10:17:15;;;;;;;0.20;0.20;;;16.70;94.40;16.10;101654.00;;;;30884186;28;20042;-66
2021/10/19 10:32:35;;;;;;;0.10;0.10;;;16.80;94.50;16.20;101641.00;;;;30880645;28;20050;-66
2021/10/19 10:47:53;;;;;;;0.10;0.10;;;17.00;94.40;16.40;101643.00;;;;30899130;28;20038;-66
2021/10/19 11:03:14;;;;;;;0.20;0.20;;;17.20;94.40;16.60;101639.00;;;;30903465;28;20788;-66
2021/10/19 11:18:22;;;;;;;0.15;0.15;;;17.40;94.30;16.80;101612.00;;;;30907944;28;20398;-66
2021/10/19 11:33:25;;;;;;;0.10;0.10;;;17.50;94.30;16.90;101620.00;;;;30898918;28;20038;-67
2021/10/19 11:48:29;;;;;;;0.10;0.10;;;17.60;94.20;17.00;101609.00;;;;30889152;28;20834;-67
2021/10/19 12:03:32;;;;;;;0.20;0.20;;;17.80;94.40;17.10;101598.00;;;;30905869;28;20180;-66
2021/10/19 12:18:45;;;;;;;0.10;0.10;;;16.60;93.90;17.20;101576.00;;;;30892632;28;20158;-66
2021/10/19 12:34:05;;;;;;;0.20;0.20;;;17.90;94.40;17.20;101573.00;;;;30886072;28;20290;-67
2021/10/19 12:49:12;;;;;;;0.30;0.30;;;17.80;94.70;17.20;101575.00;;;;30885280;28;20042;-66
2021/10/19 13:04:13;;;;;;;0.10;0.10;;;17.90;94.50;17.30;101556.00;;;;30916396;28;20418;-66
2021/10/19 13:19:20;;;;;;;0.10;0.10;;;17.90;94.30;17.30;101559.00;;;;30886165;28;20072;-66
2021/10/19 13:34:23;;;;;;;3.40;0.25;;;18.10;94.30;17.40;101540.00;;;;30884936;28;20509;-67
2021/10/19 13:49:24;;;;;;;1.35;0.75;;;18.10;94.10;17.60;101544.00;;;;30875531;28;20409;-67
2021/10/19 14:04:26;;;;;;;0.32;0.32;;;18.30;93.90;17.70;101526.00;;;;30913784;28;20042;-66
2021/10/19 14:19:33;;;;;;;1.80;0.63;;;18.50;93.80;17.90;101524.00;;;;30893612;28;20129;-66
2021/10/19 14:34:35;;;;;;;0.10;0.10;;;18.50;93.70;17.90;101525.00;;;;30939792;28;20074;-67
2021/10/19 14:49:37;;;;;;;0.30;0.30;;;18.50;94.00;17.80;101507.00;;;;30915508;28;20042;-67
2021/10/19 15:04:39;;;;;;;0.20;0.20;;;18.40;94.30;17.80;101494.00;;;;30899876;28;20097;-67
2021/10/19 15:19:40;;;;;;;2.03;0.40;;;18.40;94.30;17.80;101484.00;;;;30880633;28;20082;-66
2021/10/19 15:34:48;;;;;;;0.10;0.10;;;18.40;94.30;17.80;101468.00;;;;30883544;28;20043;-66
2021/10/19 15:49:49;;;;;;;0.20;0.20;;;18.50;94.00;17.80;101467.00;;;;30882659;28;20042;-66
2021/10/19 16:05:42;;;;;;;0.10;0.10;;;18.40;93.60;17.70;101461.00;;;;30866668;28;20074;-66
2021/10/19 16:20:45;;;;;;;0.10;0.10;;;18.20;93.70;17.50;101431.00;;;;30881872;28;20133;-67
2021/10/19 16:35:47;;;;;;;0.45;0.45;;;18.20;93.70;17.40;101416.00;;;;30873838;28;20549;-68
2021/10/19 16:50:55;;;;;;;0.30;0.30;;;18.00;93.70;17.30;101446.00;;;;30872235;28;20046;-68
2021/10/19 17:05:56;;;;;;;0.35;0.35;;;17.90;93.60;17.20;101449.00;;;;30897590;28;20050;-68
2021/10/19 17:20:58;;;;;;;0.52;0.52;;;17.80;93.60;17.10;101427.00;;;;30877137;28;20042;-68
2021/10/19 17:36:11;;;;;;;1.23;1.13;;;17.60;93.50;16.80;101423.00;;;;30890968;28;20127;-68
2021/10/19 17:51:21;;;;;;;0.30;0.30;;;17.40;93.40;16.70;101414.00;;;;30871597;28;20051;-68
2021/10/19 18:06:22;;;;;;;0.65;0.20;;;17.30;93.20;16.60;101397.00;;;;30843914;28;20073;-68
2021/10/19 18:21:25;;;;;;;0.45;0.45;;;17.20;93.20;16.50;101379.00;;;;30846514;28;20039;-67
2021/10/19 18:36:27;;;;;;;0.20;0.20;;;17.20;92.50;16.50;101370.00;;;;30857819;28;20776;-67
2021/10/19 18:51:29;;;;;;;0.93;0.93;;;17.20;92.30;16.50;101361.00;;;;30843446;28;20082;-68
2021/10/19 19:06:30;;;;;;;0.40;0.40;;;17.10;92.30;16.30;101342.00;;;;30883078;28;20046;-69
2021/10/19 19:21:31;;;;;;;0.77;0.77;;;17.00;92.30;16.30;101337.00;;;;30860958;28;20053;-68
2021/10/19 19:36:34;;;;;;;0.30;0.30;;;16.90;92.20;16.30;101331.00;;;;30857792;28;20054;-69
2021/10/19 19:51:35;;;;;;;;;;;16.90;92.20;16.20;101319.00;;;;30891319;28;20089;-68
2021/10/19 20:06:36;;;;;;;0.10;0.10;;;16.90;92.00;16.30;101306.00;;;;30874534;28;20033;-70
2021/10/19 20:21:37;;;;;;;0.10;0.10;;;17.00;91.70;16.30;101290.00;;;;30867424;28;20528;-69
2021/10/19 20:36:38;;;;;;;0.43;0.43;;;17.00;91.60;16.20;101279.00;;;;30859822;28;20078;-69
2021/10/19 20:51:40;;;;;;;0.10;0.10;;;16.80;91.40;16.10;101263.00;;;;30855024;28;20049;-69
2021/10/19 21:06:42;;;;;;;0.47;0.47;;;16.70;91.30;16.00;101243.00;;;;30867545;28;20651;-70
2021/10/19 21:21:43;;;;;;;0.20;0.20;;;16.70;91.10;15.90;101249.00;;;;30855083;28;20052;-68
2021/10/19 21:36:44;;;;;;;0.10;0.10;;;16.60;91.40;15.80;101245.00;;;;30850213;28;20537;-68
2021/10/19 21:51:45;;;;;;;0.10;0.10;;;16.40;90.60;15.70;101215.00;;;;30854007;28;20409;-68
2021/10/19 22:06:47;;;;;;;0.10;0.10;;;16.40;90.40;15.60;101190.00;;;;30851271;28;20055;-68
2021/10/19 22:21:50;;;;;;;0.10;0.10;;;16.30;90.20;15.50;101175.00;;;;30863503;28;20042;-68
2021/10/19 22:36:51;;;;;;;;;;;16.30;90.00;15.40;101158.00;;;;30860640;28;20285;-68
2021/10/19 22:51:55;;;;;;;0.30;0.20;;;16.00;89.50;15.30;101127.00;;;;30874050;28;19933;-68
2021/10/19 23:06:57;;;;;;;0.20;0.20;;;16.00;88.50;15.20;101111.00;;;;30893097;28;20498;-68
2021/10/19 23:22:04;;;;;;;0.20;0.20;;;15.90;88.70;15.10;101078.00;;;;30892894;28;20058;-68
2021/10/19 23:37:11;;;;;;;0.10;0.10;;;15.80;88.20;15.00;101060.00;;;;30896192;28;20058;-68
2021/10/19 23:52:12;;;;;;;0.10;0.10;;;15.70;87.60;15.00;101034.00;;;;30898841;28;20450;-67
